Time;durP1;ratioP1;P1;durP2;ratioP2;P2;SDS_P1;SDS_P2;PMS_P1;PMS_P2;Temp;Humidity;BMP_temperature;BMP_pressure;BME280_temperature;BME280_humidity;BME280_pressure;Samples;Min_cycle;Max_cycle;Signal;HPM_P1;HPM_P2
2023/03/23 00:01:31;;;;;;;12.55;3.63;;;11.60;99.90;;;;;;5018331;28;20403;-91
2023/03/23 00:03:58;;;;;;;8.45;3.28;;;11.60;99.90;;;;;;5018571;28;20106;-87
2023/03/23 00:06:25;;;;;;;11.30;3.45;;;11.60;99.90;;;;;;5014211;28;20044;-89
2023/03/23 00:08:56;;;;;;;12.35;4.03;;;11.60;99.90;;;;;;5031448;28;20048;-88
2023/03/23 00:11:23;;;;;;;7.85;3.08;;;11.60;99.90;;;;;;5044436;28;20052;-87
2023/03/23 00:13:53;;;;;;;9.55;2.97;;;11.60;99.90;;;;;;5026379;28;20567;-88
2023/03/23 00:16:30;;;;;;;10.75;3.80;;;11.60;99.90;;;;;;4699348;28;10000853;-89
2023/03/23 00:19:00;;;;;;;10.95;3.45;;;11.60;99.90;;;;;;5045625;28;20045;-91
2023/03/23 00:21:35;;;;;;;7.50;3.00;;;11.50;99.90;;;;;;5033987;28;20909;-88
2023/03/23 00:24:09;;;;;;;6.50;2.40;;;11.50;99.90;;;;;;5017089;28;20373;-89
2023/03/23 00:26:43;;;;;;;7.03;2.65;;;11.40;99.90;;;;;;5031825;28;20044;-87
2023/03/23 00:29:21;;;;;;;9.57;3.35;;;11.50;99.90;;;;;;5009756;28;20048;-88
2023/03/23 00:31:47;;;;;;;11.65;2.90;;;11.40;99.90;;;;;;5014456;28;20067;-87
2023/03/23 00:34:19;;;;;;;10.55;3.58;;;11.50;99.90;;;;;;5030745;28;20049;-87
2023/03/23 00:37:03;;;;;;;11.48;3.88;;;11.50;99.90;;;;;;5046398;28;20470;-88
2023/03/23 00:39:28;;;;;;;8.50;3.10;;;11.50;99.90;;;;;;5014424;28;20051;-85
2023/03/23 00:42:00;;;;;;;7.50;2.78;;;11.60;99.90;;;;;;5014157;28;20037;-86
2023/03/23 00:44:31;;;;;;;10.07;3.40;;;11.60;99.90;;;;;;5012695;28;20056;-87
2023/03/23 00:46:57;;;;;;;9.32;3.33;;;11.60;99.90;;;;;;5051101;28;20075;-87
2023/03/23 00:49:27;;;;;;;8.52;3.65;;;11.60;99.90;;;;;;5045468;28;20052;-87
2023/03/23 00:51:53;;;;;;;9.13;3.67;;;11.60;99.90;;;;;;5022331;28;20088;-86
2023/03/23 00:54:20;;;;;;;12.05;3.47;;;11.60;99.90;;;;;;5026178;28;20041;-87
2023/03/23 00:56:45;;;;;;;11.65;3.00;;;11.70;99.90;;;;;;5010346;28;20040;-87
2023/03/23 00:59:12;;;;;;;11.82;3.67;;;11.60;99.90;;;;;;5009220;28;20745;-87
2023/03/23 01:01:38;;;;;;;6.35;2.38;;;11.60;99.90;;;;;;5013805;28;20102;-88
2023/03/23 01:04:04;;;;;;;4.60;2.10;;;11.60;99.90;;;;;;5011399;28;20630;-87
2023/03/23 01:06:31;;;;;;;5.43;2.38;;;11.60;99.90;;;;;;5026012;28;20055;-87
2023/03/23 01:08:58;;;;;;;4.45;2.03;;;11.50;99.90;;;;;;5009427;28;20518;-87
2023/03/23 01:11:25;;;;;;;7.45;2.72;;;11.40;99.90;;;;;;5028805;28;20048;-87
2023/03/23 01:13:51;;;;;;;7.18;2.53;;;11.40;99.90;;;;;;5010024;28;20400;-86
2023/03/23 01:16:17;;;;;;;7.90;2.83;;;11.40;99.90;;;;;;5025166;28;20047;-86
2023/03/23 01:18:43;;;;;;;5.68;2.42;;;11.40;99.90;;;;;;5018779;28;20044;-87
2023/03/23 01:21:10;;;;;;;9.10;3.72;;;11.40;99.90;;;;;;5029282;28;20048;-86
2023/03/23 01:23:36;;;;;;;7.68;2.60;;;11.40;99.90;;;;;;5029017;28;20098;-87
2023/03/23 01:26:15;;;;;;;7.90;2.40;;;11.40;99.90;;;;;;5009598;28;20491;-87
2023/03/23 01:28:41;;;;;;;7.25;2.55;;;11.30;99.90;;;;;;5049450;28;20078;-86
2023/03/23 01:31:14;;;;;;;6.85;3.25;;;11.30;99.90;;;;;;5015165;28;20480;-85
2023/03/23 01:33:40;;;;;;;13.80;3.78;;;11.30;99.90;;;;;;5029984;28;20060;-88
2023/03/23 01:36:10;;;;;;;9.70;3.50;;;11.30;99.90;;;;;;5010224;28;20092;-84
2023/03/23 01:38:36;;;;;;;5.35;2.22;;;11.30;99.90;;;;;;5046088;28;20086;-86
2023/03/23 01:41:03;;;;;;;6.00;2.33;;;11.20;99.90;;;;;;5010067;28;20045;-87
2023/03/23 01:43:29;;;;;;;11.65;3.63;;;11.20;99.90;;;;;;5057764;28;20045;-86
2023/03/23 01:45:55;;;;;;;12.10;3.75;;;11.20;99.90;;;;;;5025741;28;20052;-87
2023/03/23 01:48:23;;;;;;;10.95;4.00;;;11.20;99.90;;;;;;5041594;28;20029;-85
2023/03/23 01:51:00;;;;;;;8.68;3.50;;;11.20;99.90;;;;;;5010756;28;20573;-87
2023/03/23 01:53:30;;;;;;;9.88;3.08;;;11.10;99.90;;;;;;5048748;28;20047;-87
2023/03/23 01:55:55;;;;;;;8.05;3.00;;;11.10;99.90;;;;;;5033358;28;20056;-88
2023/03/23 01:58:25;;;;;;;6.60;2.63;;;11.00;99.90;;;;;;5014309;28;20051;-86
2023/03/23 02:00:53;;;;;;;7.55;3.28;;;11.00;99.90;;;;;;5034594;28;20090;-86
2023/03/23 02:03:19;;;;;;;6.78;3.05;;;10.90;99.90;;;;;;5005528;28;20143;-86
2023/03/23 02:05:45;;;;;;;7.07;3.03;;;10.90;99.90;;;;;;5027571;28;20158;-87
2023/03/23 02:08:12;;;;;;;11.93;3.33;;;10.90;99.90;;;;;;5010609;28;20128;-88
2023/03/23 02:10:38;;;;;;;7.72;2.30;;;10.80;99.90;;;;;;5014399;28;20077;-86
2023/03/23 02:13:06;;;;;;;12.32;3.17;;;10.70;99.90;;;;;;5013322;28;20068;-87
2023/03/23 02:16:04;;;;;;;7.50;2.85;;;10.80;99.90;;;;;;5016427;28;20040;-87
2023/03/23 02:18:32;;;;;;;8.27;2.97;;;10.70;99.90;;;;;;5033365;28;20479;-88
2023/03/23 02:21:01;;;;;;;8.80;3.30;;;10.70;99.90;;;;;;5046192;28;20047;-87
2023/03/23 02:23:50;;;;;;;10.05;2.60;;;10.60;99.90;;;;;;5065545;28;20062;-88
2023/03/23 02:26:50;;;;;;;9.50;3.08;;;10.60;99.90;;;;;;5025019;28;20081;-88
2023/03/23 02:29:31;;;;;;;6.68;2.45;;;10.60;99.90;;;;;;5036201;28;20047;-87
2023/03/23 02:32:39;;;;;;;11.80;3.28;;;10.50;99.90;;;;;;5034090;28;20052;-86
2023/03/23 02:35:24;;;;;;;6.90;2.50;;;10.50;99.90;;;;;;5045569;28;20048;-88
2023/03/23 02:37:52;;;;;;;6.80;2.08;;;10.50;99.90;;;;;;5020406;28;20091;-86
2023/03/23 02:40:24;;;;;;;8.07;2.47;;;10.40;99.90;;;;;;5039880;28;20044;-87
2023/03/23 02:42:53;;;;;;;8.27;3.08;;;10.40;99.90;;;;;;5018235;28;20711;-86
2023/03/23 02:45:19;;;;;;;5.88;2.00;;;10.40;99.90;;;;;;5022882;28;20087;-87
2023/03/23 02:47:45;;;;;;;5.63;2.25;;;10.30;99.90;;;;;;5022686;28;20488;-86
2023/03/23 02:50:12;;;;;;;7.28;2.13;;;10.40;99.90;;;;;;5018901;28;20137;-87
2023/03/23 02:52:39;;;;;;;11.23;2.83;;;10.30;99.90;;;;;;5049821;28;20106;-87
2023/03/23 02:55:05;;;;;;;10.55;3.55;;;10.30;99.90;;;;;;5026696;28;20052;-88
2023/03/23 02:57:31;;;;;;;9.50;2.90;;;10.30;99.90;;;;;;4672810;28;10000258;-88
2023/03/23 02:59:57;;;;;;;11.10;3.75;;;10.30;99.90;;;;;;5019080;28;20044;-86
2023/03/23 03:02:35;;;;;;;7.15;2.58;;;10.30;99.90;;;;;;5033199;28;20055;-86
2023/03/23 03:05:35;;;;;;;5.60;2.10;;;10.30;99.90;;;;;;5022556;28;20130;-86
2023/03/23 03:08:18;;;;;;;6.60;2.20;;;10.30;99.90;;;;;;5055301;28;20048;-87
2023/03/23 03:10:57;;;;;;;8.80;3.00;;;10.20;99.90;;;;;;5023995;28;20040;-88
2023/03/23 03:14:00;;;;;;;7.25;2.50;;;10.20;99.90;;;;;;5019620;28;20056;-87
2023/03/23 03:16:36;;;;;;;10.48;3.08;;;10.20;99.90;;;;;;5014500;28;20529;-86
2023/03/23 03:19:08;;;;;;;8.20;3.42;;;10.20;99.90;;;;;;5034842;28;20048;-89
2023/03/23 03:21:36;;;;;;;10.63;3.35;;;10.20;99.90;;;;;;5033984;28;20052;-87
2023/03/23 03:24:03;;;;;;;7.03;2.60;;;10.20;99.90;;;;;;5038699;28;20652;-87
2023/03/23 03:26:31;;;;;;;12.27;3.50;;;10.20;99.90;;;;;;5039044;28;20815;-85
2023/03/23 03:28:57;;;;;;;10.35;3.13;;;10.10;99.90;;;;;;5035491;28;20040;-86
2023/03/23 03:31:28;;;;;;;9.90;3.13;;;10.10;99.90;;;;;;5036253;28;20051;-88
2023/03/23 03:33:54;;;;;;;5.20;2.28;;;10.10;99.90;;;;;;5037904;28;20403;-87
2023/03/23 03:36:34;;;;;;;5.05;2.53;;;10.10;99.90;;;;;;5043949;28;20047;-87
2023/03/23 03:39:04;;;;;;;6.95;1.95;;;10.00;99.90;;;;;;5040291;28;20491;-87
2023/03/23 03:41:30;;;;;;;6.63;2.15;;;10.00;99.90;;;;;;5022575;28;20048;-88
2023/03/23 03:43:56;;;;;;;4.97;1.90;;;10.00;99.90;;;;;;5037940;28;20051;-87
2023/03/23 03:46:26;;;;;;;4.49;1.74;;;9.90;99.90;;;;;;4663430;28;10001226;-87
2023/03/23 03:48:53;;;;;;;5.43;2.22;;;9.90;99.90;;;;;;5018991;28;20410;-88
2023/03/23 03:51:19;;;;;;;5.57;1.65;;;9.80;99.90;;;;;;5050507;28;20061;-88
2023/03/23 03:53:45;;;;;;;4.40;1.63;;;9.80;99.90;;;;;;4690525;28;9999934;-87
2023/03/23 03:56:11;;;;;;;4.63;1.70;;;9.80;99.90;;;;;;5023422;28;20150;-88
2023/03/23 03:58:36;;;;;;;6.90;2.40;;;9.80;99.90;;;;;;5023300;28;20094;-88
2023/03/23 04:01:03;;;;;;;4.35;1.80;;;9.80;99.90;;;;;;5023190;28;20075;-86
2023/03/23 04:03:29;;;;;;;5.18;1.92;;;9.90;99.90;;;;;;5021063;28;20060;-88
2023/03/23 04:05:55;;;;;;;7.50;2.78;;;9.90;99.90;;;;;;5021483;28;20040;-87
2023/03/23 04:08:24;;;;;;;6.32;2.28;;;9.90;99.90;;;;;;5022994;28;20036;-88
2023/03/23 04:10:50;;;;;;;6.25;2.60;;;9.90;99.90;;;;;;5023106;28;20044;-87
2023/03/23 04:13:16;;;;;;;7.03;3.00;;;9.90;99.90;;;;;;5019462;28;20435;-86
2023/03/23 04:15:43;;;;;;;7.00;2.67;;;9.90;99.90;;;;;;5019265;28;20118;-87
2023/03/23 04:18:09;;;;;;;6.88;3.05;;;9.90;99.90;;;;;;5019342;28;20048;-88
2023/03/23 04:20:35;;;;;;;7.35;2.40;;;9.90;99.90;;;;;;5026774;28;20048;-88
2023/03/23 04:23:01;;;;;;;6.78;2.42;;;9.90;99.90;;;;;;5049139;28;20048;-87
2023/03/23 04:25:27;;;;;;;7.20;2.70;;;9.90;99.90;;;;;;5038565;28;20149;-86
2023/03/23 04:27:53;;;;;;;7.40;2.22;;;9.90;99.90;;;;;;5038771;28;20048;-87
2023/03/23 04:30:24;;;;;;;5.07;1.90;;;9.90;99.90;;;;;;5038091;28;20100;-87
2023/03/23 04:32:50;;;;;;;4.22;1.67;;;9.90;99.90;;;;;;5038505;28;20047;-86
2023/03/23 04:35:17;;;;;;;6.18;2.15;;;9.90;99.90;;;;;;5037206;28;20135;-87
2023/03/23 04:37:43;;;;;;;6.63;2.53;;;9.80;99.90;;;;;;5037746;28;20509;-87
2023/03/23 04:40:12;;;;;;;6.78;2.70;;;9.80;99.90;;;;;;5021213;28;20152;-86
2023/03/23 04:42:38;;;;;;;6.65;2.25;;;9.90;99.90;;;;;;5022337;28;20090;-85
2023/03/23 04:45:06;;;;;;;4.47;1.80;;;9.80;99.90;;;;;;5021445;28;20059;-86
2023/03/23 04:47:33;;;;;;;6.13;2.30;;;9.80;99.90;;;;;;5020976;28;20040;-87
2023/03/23 04:49:59;;;;;;;5.30;2.38;;;9.80;99.90;;;;;;5020945;28;20058;-87
2023/03/23 04:52:25;;;;;;;5.75;1.90;;;9.80;99.90;;;;;;5021273;28;20052;-87
2023/03/23 04:54:52;;;;;;;5.93;1.88;;;9.70;99.90;;;;;;5054708;28;20140;-86
2023/03/23 04:57:18;;;;;;;5.47;2.17;;;9.70;99.90;;;;;;5022139;28;20059;-88
2023/03/23 04:59:44;;;;;;;3.30;1.45;;;9.70;99.90;;;;;;5022122;28;20040;-87
2023/03/23 05:02:10;;;;;;;4.38;1.70;;;9.60;99.90;;;;;;5018369;28;20448;-88
2023/03/23 05:04:37;;;;;;;4.53;1.88;;;9.60;99.90;;;;;;5017487;28;20120;-88
2023/03/23 05:07:04;;;;;;;5.25;1.50;;;9.60;99.90;;;;;;5025088;28;20127;-87
2023/03/23 05:09:29;;;;;;;5.82;1.77;;;9.50;99.90;;;;;;5053798;28;20079;-87
2023/03/23 05:11:55;;;;;;;5.68;2.22;;;9.60;99.90;;;;;;5054840;28;20075;-87
2023/03/23 05:14:21;;;;;;;6.93;1.98;;;9.50;99.90;;;;;;5021075;28;20036;-87
2023/03/23 05:16:48;;;;;;;5.95;2.20;;;9.60;99.90;;;;;;5021566;28;20087;-86
2023/03/23 05:19:14;;;;;;;5.47;2.15;;;9.50;99.90;;;;;;5020708;28;20044;-87
2023/03/23 05:21:41;;;;;;;4.18;1.85;;;9.50;99.90;;;;;;5021305;28;20036;-86
2023/03/23 05:24:07;;;;;;;5.43;1.60;;;9.50;99.90;;;;;;5038269;28;20095;-88
2023/03/23 05:26:33;;;;;;;3.70;1.70;;;9.50;99.90;;;;;;5021700;28;20154;-86
2023/03/23 05:28:59;;;;;;;7.20;1.83;;;9.50;99.90;;;;;;5020696;28;20085;-87
2023/03/23 05:31:25;;;;;;;7.53;2.00;;;9.50;99.90;;;;;;5053263;28;20138;-87
2023/03/23 05:33:51;;;;;;;4.90;1.58;;;9.50;99.90;;;;;;5036862;28;20101;-87
2023/03/23 05:36:17;;;;;;;7.10;2.08;;;9.50;99.90;;;;;;5021588;28;20056;-88
2023/03/23 05:38:45;;;;;;;8.05;2.92;;;9.50;99.90;;;;;;5021302;28;20648;-88
2023/03/23 05:41:14;;;;;;;5.95;1.88;;;9.60;99.90;;;;;;5022296;28;20577;-87
2023/03/23 05:43:40;;;;;;;7.25;2.30;;;9.60;99.90;;;;;;5021428;28;20052;-87
2023/03/23 05:46:07;;;;;;;5.97;1.92;;;9.50;99.90;;;;;;5020970;28;20047;-88
2023/03/23 05:48:33;;;;;;;5.68;2.08;;;9.50;99.90;;;;;;5020087;28;20040;-86
2023/03/23 05:50:59;;;;;;;6.05;1.48;;;9.40;99.90;;;;;;5020867;28;20048;-87
2023/03/23 05:53:26;;;;;;;3.70;1.63;;;9.40;99.90;;;;;;5002196;28;20534;-88
2023/03/23 05:55:52;;;;;;;6.10;2.03;;;9.40;99.90;;;;;;4998981;28;20048;-89
2023/03/23 05:58:18;;;;;;;4.63;2.35;;;9.30;99.90;;;;;;4998639;28;20052;-88
2023/03/23 06:00:46;;;;;;;4.28;1.48;;;9.40;99.90;;;;;;4995230;28;20107;-87
2023/03/23 06:03:12;;;;;;;5.03;1.90;;;9.40;99.90;;;;;;5004289;28;20056;-87
2023/03/23 06:05:45;;;;;;;4.32;2.20;;;9.30;99.90;;;;;;4992371;28;20068;-88
2023/03/23 06:08:11;;;;;;;4.13;1.70;;;9.30;99.90;;;;;;5008595;28;20055;-89
2023/03/23 06:10:37;;;;;;;5.93;1.92;;;9.30;99.90;;;;;;4996851;28;20804;-88
2023/03/23 06:13:03;;;;;;;4.75;1.80;;;9.30;99.90;;;;;;4995347;28;20037;-88
2023/03/23 06:15:31;;;;;;;4.10;1.52;;;9.30;99.90;;;;;;5025602;28;20056;-88
2023/03/23 06:18:01;;;;;;;6.15;2.10;;;9.30;99.90;;;;;;5013773;28;20049;-87
2023/03/23 06:20:29;;;;;;;5.18;1.88;;;9.30;99.90;;;;;;5009003;28;20041;-84
2023/03/23 06:22:55;;;;;;;4.80;1.45;;;9.30;99.90;;;;;;5015246;28;20040;-83
2023/03/23 06:25:22;;;;;;;4.22;1.40;;;9.30;99.90;;;;;;4995677;28;20044;-85
2023/03/23 06:27:48;;;;;;;4.38;1.58;;;9.30;99.90;;;;;;4996291;28;20057;-84
2023/03/23 06:30:14;;;;;;;4.55;1.90;;;9.40;99.90;;;;;;5010704;28;20051;-86
2023/03/23 06:32:41;;;;;;;3.63;1.27;;;9.40;99.90;;;;;;4992510;28;20053;-85
2023/03/23 06:35:09;;;;;;;4.50;1.40;;;9.50;99.90;;;;;;5011395;28;20117;-87
2023/03/23 06:37:36;;;;;;;4.38;1.35;;;9.50;99.90;;;;;;5025096;28;20178;-87
2023/03/23 06:40:04;;;;;;;3.75;1.23;;;9.60;99.90;;;;;;4996719;28;20053;-88
2023/03/23 06:42:30;;;;;;;4.57;1.45;;;9.70;99.90;;;;;;5005738;28;20413;-88
2023/03/23 06:44:57;;;;;;;2.45;0.95;;;9.70;99.90;;;;;;4993556;28;20050;-86
2023/03/23 06:47:24;;;;;;;3.17;1.73;;;9.70;99.90;;;;;;5009723;28;20045;-85
2023/03/23 06:49:49;;;;;;;2.78;1.40;;;9.60;99.90;;;;;;5022834;28;20053;-86
2023/03/23 06:52:15;;;;;;;3.35;1.80;;;9.60;99.90;;;;;;4997186;28;20077;-87
2023/03/23 06:54:41;;;;;;;5.88;1.42;;;9.60;99.90;;;;;;5028175;28;20067;-86
2023/03/23 06:57:08;;;;;;;6.03;1.90;;;9.70;99.90;;;;;;5011886;28;20468;-86
2023/03/23 06:59:33;;;;;;;4.93;1.77;;;9.70;99.90;;;;;;5014458;28;20059;-87
2023/03/23 07:01:59;;;;;;;6.68;1.92;;;9.70;99.90;;;;;;5026526;28;20045;-87
2023/03/23 07:04:25;;;;;;;5.45;2.40;;;9.70;99.90;;;;;;5009103;28;20067;-87
2023/03/23 07:06:51;;;;;;;9.90;2.40;;;9.80;99.90;;;;;;5006321;28;20044;-87
2023/03/23 07:09:16;;;;;;;6.47;2.10;;;9.80;99.90;;;;;;5032971;28;20049;-86
2023/03/23 07:11:43;;;;;;;10.50;2.88;;;9.90;99.90;;;;;;5027416;28;20360;-88
2023/03/23 07:14:09;;;;;;;6.85;2.55;;;9.90;99.90;;;;;;5026228;28;20578;-88
2023/03/23 07:16:35;;;;;;;10.00;2.40;;;10.00;99.90;;;;;;5021357;28;20595;-87
2023/03/23 07:19:01;;;;;;;7.47;2.60;;;10.00;99.90;;;;;;5026405;28;20284;-87
2023/03/23 07:21:26;;;;;;;6.90;2.80;;;10.10;99.90;;;;;;5011239;28;20113;-87
2023/03/23 07:23:54;;;;;;;5.90;2.40;;;10.10;99.90;;;;;;5007923;28;20054;-87
2023/03/23 07:26:19;;;;;;;9.05;2.30;;;10.20;99.90;;;;;;5043534;28;20484;-88
2023/03/23 07:28:46;;;;;;;8.68;3.38;;;10.30;99.90;;;;;;5027782;28;20064;-87
2023/03/23 07:31:12;;;;;;;11.55;3.40;;;10.40;99.90;;;;;;5031243;28;20155;-87
2023/03/23 07:33:38;;;;;;;8.38;2.75;;;10.50;99.90;;;;;;5011209;28;20067;-88
2023/03/23 07:36:05;;;;;;;6.88;2.60;;;10.60;99.90;;;;;;5008189;28;20420;-87
2023/03/23 07:38:31;;;;;;;8.25;3.10;;;10.70;99.90;;;;;;5023124;28;20238;-86
2023/03/23 07:40:57;;;;;;;6.78;2.65;;;10.70;99.90;;;;;;5041151;28;20037;-87
2023/03/23 07:43:23;;;;;;;5.82;2.60;;;10.90;99.90;;;;;;5022209;28;20075;-86
2023/03/23 07:45:49;;;;;;;8.70;2.13;;;11.00;99.90;;;;;;5011260;28;20048;-87
2023/03/23 07:48:15;;;;;;;9.85;3.00;;;11.10;99.90;;;;;;5011426;28;20052;-87
2023/03/23 07:50:41;;;;;;;7.53;2.95;;;11.20;99.90;;;;;;5007416;28;20067;-87
2023/03/23 07:53:07;;;;;;;9.77;3.17;;;11.30;99.90;;;;;;5034357;28;20143;-87
2023/03/23 07:55:33;;;;;;;9.75;3.60;;;11.40;99.90;;;;;;5027192;28;20131;-87
2023/03/23 07:57:59;;;;;;;8.32;3.03;;;11.40;99.90;;;;;;5027526;28;20053;-87
2023/03/23 08:00:25;;;;;;;9.88;3.60;;;11.40;99.90;;;;;;5025118;28;20037;-87
2023/03/23 08:02:53;;;;;;;9.13;3.10;;;11.30;99.90;;;;;;5009610;28;20040;-87
2023/03/23 08:05:19;;;;;;;10.63;3.05;;;11.30;99.90;;;;;;5022911;28;20072;-88
2023/03/23 08:07:44;;;;;;;8.52;2.78;;;11.30;99.90;;;;;;5015267;28;20108;-88
2023/03/23 08:10:11;;;;;;;8.23;2.90;;;11.30;99.90;;;;;;5037918;28;20094;-88
2023/03/23 08:12:41;;;;;;;8.23;3.05;;;11.30;99.90;;;;;;5005040;28;20491;-89
2023/03/23 08:15:07;;;;;;;8.18;2.80;;;11.30;99.90;;;;;;5010551;28;20052;-88
2023/03/23 08:17:34;;;;;;;9.45;2.92;;;11.40;99.90;;;;;;5023134;28;20117;-87
2023/03/23 08:20:00;;;;;;;11.07;3.03;;;11.40;99.90;;;;;;5025829;28;20436;-87
2023/03/23 08:22:26;;;;;;;10.25;2.88;;;11.50;99.90;;;;;;5022311;28;20244;-87
2023/03/23 08:24:52;;;;;;;9.13;2.80;;;11.50;99.90;;;;;;5026474;28;20052;-87
2023/03/23 08:27:18;;;;;;;10.93;3.95;;;11.60;99.90;;;;;;5025099;28;20124;-87
2023/03/23 08:29:48;;;;;;;9.00;2.88;;;11.60;99.90;;;;;;5039604;28;20073;-87
2023/03/23 08:32:14;;;;;;;10.00;3.45;;;11.70;99.90;;;;;;5039661;28;20055;-87
2023/03/23 08:34:41;;;;;;;10.70;3.10;;;11.70;99.90;;;;;;5005927;28;20515;-87
2023/03/23 08:37:08;;;;;;;9.10;3.15;;;11.80;99.90;;;;;;5022571;28;20044;-88
2023/03/23 08:39:34;;;;;;;9.05;3.05;;;11.80;99.90;;;;;;5007954;28;20075;-87
2023/03/23 08:42:00;;;;;;;6.72;2.50;;;11.90;99.90;;;;;;5045680;28;20052;-87
2023/03/23 08:44:26;;;;;;;6.70;2.95;;;12.00;99.90;;;;;;5023402;28;20040;-86
2023/03/23 08:46:56;;;;;;;12.48;3.22;;;12.20;99.90;;;;;;5025809;28;20040;-87
2023/03/23 08:49:23;;;;;;;8.90;3.47;;;12.40;99.90;;;;;;5009593;28;20052;-86
2023/03/23 08:51:49;;;;;;;9.25;3.10;;;12.40;99.90;;;;;;5009814;28;20079;-87
2023/03/23 08:54:15;;;;;;;6.65;2.72;;;12.50;99.90;;;;;;5032202;28;20054;-87
2023/03/23 08:56:42;;;;;;;9.18;3.55;;;12.70;99.90;;;;;;5009716;28;20040;-87
2023/03/23 08:59:08;;;;;;;8.07;2.20;;;12.80;99.90;;;;;;5023577;28;20542;-87
2023/03/23 09:01:34;;;;;;;8.63;2.85;;;12.90;99.90;;;;;;5022374;28;20059;-87
2023/03/23 09:04:00;;;;;;;6.80;2.72;;;13.10;99.90;;;;;;5041210;28;20853;-86
2023/03/23 09:06:27;;;;;;;8.23;3.08;;;13.20;99.90;;;;;;5009192;28;20552;-85
2023/03/23 09:08:55;;;;;;;5.35;2.70;;;13.10;99.90;;;;;;5009769;28;20059;-85
2023/03/23 09:11:20;;;;;;;7.38;2.45;;;13.20;99.90;;;;;;5010205;28;20048;-87
2023/03/23 09:13:46;;;;;;;11.90;4.43;;;13.20;99.90;;;;;;5006163;28;20048;-87
2023/03/23 09:16:12;;;;;;;10.10;3.05;;;13.30;99.90;;;;;;5025616;28;20104;-88
2023/03/23 09:18:38;;;;;;;9.07;2.70;;;13.40;99.90;;;;;;5008384;28;20506;-87
2023/03/23 09:21:04;;;;;;;6.93;2.65;;;13.50;99.90;;;;;;5009377;28;20091;-87
2023/03/23 09:23:30;;;;;;;6.75;2.92;;;13.70;99.90;;;;;;5011091;28;20089;-87
2023/03/23 09:25:56;;;;;;;8.40;2.97;;;13.70;99.90;;;;;;5004979;28;20417;-86
2023/03/23 09:28:22;;;;;;;8.88;2.65;;;13.60;99.90;;;;;;5032046;28;20397;-86
2023/03/23 09:30:48;;;;;;;8.60;3.05;;;13.60;99.90;;;;;;5006256;28;20045;-87
2023/03/23 09:33:14;;;;;;;7.60;3.30;;;13.60;99.90;;;;;;5006728;28;20182;-87
2023/03/23 09:35:41;;;;;;;8.40;3.05;;;13.60;99.90;;;;;;5008008;28;20327;-87
2023/03/23 09:38:08;;;;;;;6.78;2.85;;;13.50;99.90;;;;;;5023930;28;20053;-87
2023/03/23 09:40:48;;;;;;;6.85;2.08;;;13.40;99.90;;;;;;5027234;28;20041;-88
2023/03/23 09:43:27;;;;;;;6.70;2.90;;;13.30;99.90;;;;;;5041988;28;20048;-87
2023/03/23 09:46:03;;;;;;;10.82;3.30;;;13.20;99.90;;;;;;5029817;28;20074;-87
2023/03/23 09:48:56;;;;;;;10.50;3.65;;;13.00;99.90;;;;;;5053990;28;20048;-86
2023/03/23 09:51:38;;;;;;;7.78;2.30;;;12.90;99.90;;;;;;5034249;28;20052;-87
2023/03/23 09:54:10;;;;;;;7.85;3.08;;;13.10;99.90;;;;;;5044848;28;20574;-89
2023/03/23 09:56:36;;;;;;;9.80;2.85;;;13.30;99.90;;;;;;5017891;28;20051;-86
2023/03/23 09:59:12;;;;;;;11.52;3.28;;;13.50;99.90;;;;;;5030240;28;20539;-86
2023/03/23 10:01:48;;;;;;;5.75;2.22;;;13.50;99.90;;;;;;5043879;28;20048;-86
2023/03/23 10:04:26;;;;;;;5.18;2.72;;;13.50;99.90;;;;;;5014325;28;20495;-87
2023/03/23 10:06:53;;;;;;;5.32;2.60;;;13.40;99.90;;;;;;5059981;28;20536;-87
2023/03/23 10:09:20;;;;;;;6.72;2.65;;;13.40;99.90;;;;;;5047471;28;20040;-87
2023/03/23 10:11:51;;;;;;;5.68;1.98;;;13.30;99.90;;;;;;5046253;28;20648;-87
2023/03/23 10:14:33;;;;;;;5.95;2.50;;;13.40;99.90;;;;;;5058198;28;20098;-87
2023/03/23 10:17:19;;;;;;;6.47;2.38;;;13.30;99.90;;;;;;5055794;28;20048;-88
2023/03/23 10:20:14;;;;;;;9.43;3.35;;;13.20;99.90;;;;;;5044578;28;20424;-87
2023/03/23 10:23:09;;;;;;;9.00;3.33;;;13.00;99.90;;;;;;5062280;28;20051;-86
2023/03/23 10:25:37;;;;;;;9.90;2.75;;;13.00;99.90;;;;;;5043684;28;20102;-86
2023/03/23 10:28:12;;;;;;;8.65;3.03;;;13.10;99.90;;;;;;5048420;28;20043;-86
2023/03/23 10:30:46;;;;;;;8.40;2.90;;;13.20;99.90;;;;;;5015206;28;20044;-87
2023/03/23 10:33:20;;;;;;;8.80;2.30;;;13.20;99.90;;;;;;5014996;28;20134;-86
2023/03/23 10:35:51;;;;;;;8.73;3.00;;;13.20;99.90;;;;;;5031080;28;20170;-87
2023/03/23 10:38:24;;;;;;;10.23;3.15;;;13.10;99.90;;;;;;5028677;28;20049;-86
2023/03/23 10:40:55;;;;;;;8.38;3.17;;;13.10;99.90;;;;;;5009158;28;20051;-87
2023/03/23 10:43:21;;;;;;;6.68;2.53;;;13.10;99.90;;;;;;5032464;28;20097;-87
2023/03/23 10:45:53;;;;;;;7.80;2.75;;;13.00;99.90;;;;;;5020189;28;20036;-87
2023/03/23 10:48:28;;;;;;;8.00;2.58;;;12.80;99.90;;;;;;5025006;28;20048;-87
2023/03/23 10:50:56;;;;;;;4.88;2.10;;;12.80;99.90;;;;;;5027317;28;20399;-86
2023/03/23 10:53:43;;;;;;;7.22;2.55;;;12.70;99.90;;;;;;5014506;28;20485;-86
2023/03/23 10:56:27;;;;;;;4.88;2.13;;;12.50;99.90;;;;;;5032090;28;20048;-86
2023/03/23 10:58:53;;;;;;;;;;;12.40;99.90;;;;;;5032008;28;20044;-87
2023/03/23 11:01:20;;;;;;;7.40;2.33;;;12.30;99.90;;;;;;5031626;28;19946;-86
2023/03/23 11:03:50;;;;;;;5.90;2.38;;;12.10;99.90;;;;;;5010733;28;20048;-86
2023/03/23 11:06:24;;;;;;;5.93;2.40;;;12.10;99.90;;;;;;5012120;28;20049;-87
2023/03/23 11:09:33;;;;;;;6.63;2.50;;;12.20;99.90;;;;;;5013642;28;20117;-87
2023/03/23 11:11:58;;;;;;;4.80;2.40;;;12.40;99.90;;;;;;5025655;28;20060;-86
2023/03/23 11:14:31;;;;;;;7.28;2.70;;;12.50;99.90;;;;;;5012601;28;20425;-87
2023/03/23 11:16:58;;;;;;;5.75;2.20;;;12.70;99.90;;;;;;5030876;28;20044;-87
2023/03/23 11:19:26;;;;;;;4.88;1.70;;;13.00;99.90;;;;;;5013560;28;20066;-87
2023/03/23 11:21:53;;;;;;;5.53;1.95;;;13.10;99.90;;;;;;5014874;28;20150;-87
2023/03/23 11:24:23;;;;;;;7.32;2.83;;;13.20;99.90;;;;;;5010221;28;20864;-87
2023/03/23 11:26:49;;;;;;;4.45;1.98;;;13.20;99.90;;;;;;5012700;28;20361;-86
2023/03/23 11:29:16;;;;;;;8.60;2.47;;;13.40;99.90;;;;;;5019357;28;20070;-87
2023/03/23 11:31:50;;;;;;;9.48;3.15;;;13.50;99.90;;;;;;5050895;28;20047;-86
2023/03/23 11:34:22;;;;;;;9.25;2.90;;;13.50;99.90;;;;;;5013156;28;20052;-87
2023/03/23 11:36:49;;;;;;;6.95;3.00;;;13.60;99.90;;;;;;5011281;28;20049;-88
2023/03/23 11:39:33;;;;;;;5.45;2.20;;;13.70;99.90;;;;;;5028947;28;20079;-87
2023/03/23 11:42:01;;;;;;;;;;;13.80;99.90;;;;;;5016484;28;20079;-87
2023/03/23 11:44:40;;;;;;;5.38;2.10;;;14.10;99.90;;;;;;5037004;28;19970;-87
2023/03/23 11:47:29;;;;;;;5.43;2.33;;;14.40;99.90;;;;;;5013204;28;20051;-87
2023/03/23 11:49:55;;;;;;;8.15;3.10;;;14.60;99.90;;;;;;5060944;28;20090;-87
2023/03/23 11:52:26;;;;;;;6.50;1.98;;;14.90;99.90;;;;;;5042744;28;20052;-87
2023/03/23 11:55:12;;;;;;;4.68;2.28;;;15.00;99.90;;;;;;5013041;28;20599;-86
2023/03/23 11:57:38;;;;;;;4.45;1.75;;;15.40;99.90;;;;;;5012886;28;20040;-87
2023/03/23 12:00:34;;;;;;;6.63;2.30;;;15.80;99.90;;;;;;5012856;28;20055;-86
2023/03/23 12:03:06;;;;;;;6.47;2.70;;;15.70;99.90;;;;;;5017546;28;20055;-86
2023/03/23 12:05:36;;;;;;;9.57;4.03;;;15.30;99.90;;;;;;5020072;28;20375;-87
2023/03/23 12:08:12;;;;;;;10.25;3.67;;;14.80;99.90;;;;;;5024854;28;20044;-88
2023/03/23 12:10:57;;;;;;;12.75;3.78;;;14.30;99.90;;;;;;5027699;28;20490;-87
2023/03/23 12:13:29;;;;;;;6.88;3.33;;;14.10;99.90;;;;;;5035534;28;20124;-87
2023/03/23 12:16:04;;;;;;;8.80;3.57;;;13.90;99.90;;;;;;5046480;28;20055;-88
2023/03/23 12:19:15;;;;;;;8.00;3.05;;;13.80;99.90;;;;;;5046060;28;20308;-88
2023/03/23 12:21:50;;;;;;;8.80;3.15;;;13.80;99.90;;;;;;5030205;28;20559;-88
2023/03/23 12:24:27;;;;;;;10.50;3.90;;;13.60;99.90;;;;;;5026125;28;20827;-88
2023/03/23 12:26:57;;;;;;;8.32;3.20;;;13.60;99.90;;;;;;5036070;28;20044;-89
2023/03/23 12:29:49;;;;;;;8.60;3.25;;;13.70;99.90;;;;;;5027339;28;20149;-88
2023/03/23 12:32:47;;;;;;;5.68;2.63;;;13.80;99.90;;;;;;5037950;28;20714;-88
2023/03/23 12:35:30;;;;;;;6.03;2.65;;;13.90;99.90;;;;;;5019535;28;20218;-88
2023/03/23 12:38:05;;;;;;;10.82;3.75;;;14.10;99.90;;;;;;5039113;28;20052;-87
2023/03/23 12:40:48;;;;;;;9.02;3.15;;;14.20;99.90;;;;;;5046414;28;20048;-88
2023/03/23 12:43:38;;;;;;;9.15;3.53;;;14.20;99.90;;;;;;5063387;28;20470;-87
2023/03/23 12:46:29;;;;;;;10.05;3.08;;;14.30;99.90;;;;;;5021919;28;20190;-88
2023/03/23 12:49:00;;;;;;;10.30;3.53;;;14.60;99.90;;;;;;5047418;28;20094;-87
2023/03/23 12:51:37;;;;;;;7.60;3.40;;;14.90;99.90;;;;;;5029522;28;20121;-88
2023/03/23 12:54:10;;;;;;;7.70;2.95;;;15.00;99.90;;;;;;5046893;28;20051;-88
2023/03/23 12:56:43;;;;;;;6.47;3.08;;;15.20;99.90;;;;;;5029904;28;20051;-88
2023/03/23 12:59:30;;;;;;;8.88;3.58;;;15.90;99.90;;;;;;5029690;28;20429;-87
2023/03/23 13:02:05;;;;;;;9.32;3.20;;;16.80;99.90;;;;;;5014025;28;20224;-87
2023/03/23 13:04:37;;;;;;;7.80;3.65;;;17.00;99.90;;;;;;5007930;28;20060;-88